createdAt,value
2016-04-07T00:00:13.745Z,4.97
2016-04-07T00:01:13.730Z,5.01
2016-04-07T00:02:13.733Z,5.05
2016-04-07T00:03:13.736Z,5.01
2016-04-07T00:04:13.739Z,4.97
2016-04-07T00:05:13.741Z,5
2016-04-07T00:06:13.744Z,5
2016-04-07T00:07:13.731Z,5.08
2016-04-07T00:08:13.812Z,5.04
2016-04-07T00:09:13.752Z,5.04
2016-04-07T00:10:13.755Z,5.02
2016-04-07T00:11:13.742Z,5.01
2016-04-07T00:12:13.761Z,5.07
2016-04-07T00:13:13.747Z,5.04
2016-04-07T00:14:13.735Z,5
2016-04-07T00:15:13.737Z,4.98
2016-04-07T00:16:13.764Z,4.98
2016-04-07T00:17:13.811Z,4.9
2016-04-07T00:18:13.858Z,5
2016-04-07T00:19:13.889Z,4.89
2016-04-07T00:20:13.780Z,4.89
2016-04-07T00:21:13.967Z,4.82
2016-04-07T00:22:13.986Z,4.79
2016-04-07T00:23:14.004Z,4.82
2016-04-07T00:24:14.022Z,4.82
2016-04-07T00:25:14.041Z,4.75
2016-04-07T00:26:14.054Z,4.78
2016-04-07T00:27:14.046Z,4.78
2016-04-07T00:28:14.039Z,4.76
2016-04-07T00:29:14.049Z,4.83
2016-04-07T00:30:14.056Z,4.82
2016-04-07T00:31:14.063Z,4.78
2016-04-07T00:32:14.068Z,4.76
2016-04-07T00:33:14.072Z,4.71
2016-04-07T00:34:14.060Z,4.67
2016-04-07T00:35:14.065Z,4.7
2016-04-07T00:36:14.069Z,4.78
2016-04-07T00:37:14.073Z,4.7
2016-04-07T00:38:14.170Z,4.71
2016-04-07T00:39:14.080Z,4.75
2016-04-07T00:40:14.068Z,4.74
2016-04-07T00:41:14.072Z,4.68
2016-04-07T00:42:14.058Z,4.61
2016-04-07T00:43:14.078Z,4.57
2016-04-07T00:44:14.081Z,4.68
2016-04-07T00:45:14.083Z,4.6
2016-04-07T00:46:14.071Z,4.66
2016-04-07T00:47:14.120Z,4.64
2016-04-07T00:48:14.091Z,4.61
2016-04-07T00:49:14.062Z,4.61
2016-04-07T00:50:14.065Z,4.58
2016-04-07T00:51:14.068Z,4.58
2016-04-07T00:52:14.070Z,4.56
2016-04-07T00:53:14.073Z,4.56
2016-04-07T00:54:14.061Z,4.5
2016-04-07T00:55:14.064Z,4.48
2016-04-07T00:56:14.066Z,4.48
2016-04-07T00:57:14.069Z,4.4
2016-04-07T00:58:14.072Z,4.56
2016-04-07T00:59:14.058Z,4.5
2016-04-07T01:00:14.077Z,4.48
2016-04-07T01:01:14.080Z,4.5
2016-04-07T01:02:14.067Z,4.42
2016-04-07T01:03:14.069Z,4.42
2016-04-07T01:04:14.072Z,4.34
2016-04-07T01:05:14.059Z,4.25
2016-04-07T01:06:14.078Z,4.25
2016-04-07T01:07:14.080Z,4.24
2016-04-07T01:08:14.067Z,4.22
2016-04-07T01:09:14.086Z,4.28
2016-04-07T01:10:14.072Z,4.28
2016-04-07T01:11:14.060Z,4.27
2016-04-07T01:12:14.063Z,4.25
2016-04-07T01:13:14.065Z,4.2
2016-04-07T01:14:14.068Z,4.25
2016-04-07T01:15:14.055Z,4.18
2016-04-07T01:16:14.073Z,4.21
2016-04-07T01:17:14.075Z,4.27
2016-04-07T01:18:14.093Z,4.22
2016-04-07T01:19:14.065Z,4.38
2016-04-07T01:20:14.053Z,4.4
2016-04-07T01:21:14.056Z,4.48
2016-04-07T01:22:14.073Z,4.53
2016-04-07T01:23:14.061Z,4.66
2016-04-07T01:24:14.063Z,4.71
2016-04-07T01:25:14.050Z,4.67
2016-04-07T01:26:14.053Z,4.68
2016-04-07T01:27:14.103Z,4.75
2016-04-07T01:28:14.058Z,4.75
2016-04-07T01:29:14.077Z,4.71
2016-04-07T01:30:14.048Z,4.75
2016-04-07T01:31:14.066Z,4.71
2016-04-07T01:32:14.053Z,4.67
2016-04-07T01:33:14.072Z,4.67
2016-04-07T01:34:14.058Z,4.68
2016-04-07T01:35:14.046Z,4.79
2016-04-07T01:36:14.049Z,4.68
2016-04-07T01:37:14.052Z,4.68
2016-04-07T01:38:14.070Z,4.71
2016-04-07T01:39:14.057Z,4.66
2016-04-07T01:40:14.060Z,4.67
2016-04-07T01:41:14.062Z,4.66
2016-04-07T01:42:14.049Z,4.71
2016-04-07T01:43:14.052Z,4.74
2016-04-07T01:44:14.055Z,4.75
2016-04-07T01:45:14.057Z,4.67
2016-04-07T01:46:14.044Z,4.53
2016-04-07T01:47:14.062Z,4.67
2016-04-07T01:48:14.049Z,4.68
2016-04-07T01:49:14.052Z,4.67
2016-04-07T01:50:14.040Z,4.71
2016-04-07T01:51:14.057Z,4.6
2016-04-07T01:52:14.060Z,4.64
2016-04-07T01:53:14.048Z,4.63
2016-04-07T01:54:14.050Z,4.64
2016-04-07T01:55:14.053Z,4.67
2016-04-07T01:56:14.040Z,4.7
2016-04-07T01:57:14.042Z,4.71
2016-04-07T01:58:14.045Z,4.64
2016-04-07T01:59:14.047Z,4.66
2016-04-07T02:00:14.050Z,4.66
2016-04-07T02:01:14.053Z,4.71
2016-04-07T02:02:14.041Z,4.79
2016-04-07T02:03:14.043Z,4.78
2016-04-07T02:04:14.046Z,4.71
2016-04-07T02:05:14.049Z,4.68
2016-04-07T02:06:14.051Z,4.67
2016-04-07T02:07:14.038Z,4.76
2016-04-07T02:08:14.041Z,4.68
2016-04-07T02:09:14.060Z,4.75
2016-04-07T02:10:14.031Z,4.71
2016-04-07T02:11:14.049Z,4.68
2016-04-07T02:12:14.035Z,4.63
2016-04-07T02:13:14.039Z,4.61
2016-04-07T02:14:14.041Z,4.58
2016-04-07T02:15:14.029Z,4.45
2016-04-07T02:16:14.032Z,4.53
2016-04-07T02:17:14.034Z,4.45
2016-04-07T02:18:14.037Z,4.38
2016-04-07T02:19:14.040Z,4.32
2016-04-07T02:20:14.042Z,4.27
2016-04-07T02:21:14.029Z,4.22
2016-04-07T02:22:14.032Z,4.18
2016-04-07T02:23:14.034Z,4.03
2016-04-07T02:24:14.037Z,4.14
2016-04-07T02:25:14.024Z,4.07
2016-04-07T02:26:14.027Z,4.02
2016-04-07T02:27:14.029Z,3.96
2016-04-07T02:28:14.032Z,4
2016-04-07T02:29:13.879Z,4
2016-04-07T02:30:14.038Z,4
2016-04-07T02:31:14.025Z,4.04
2016-04-07T02:32:14.027Z,3.94
2016-04-07T02:33:14.077Z,3.95
2016-04-07T02:34:14.017Z,3.89
2016-04-07T02:35:14.036Z,3.94
2016-04-07T02:36:14.039Z,3.84
2016-04-07T02:37:14.025Z,3.86
2016-04-07T02:38:14.027Z,3.82
2016-04-07T02:39:14.030Z,3.76
2016-04-07T02:40:14.018Z,3.78
2016-04-07T02:41:14.035Z,3.77
2016-04-07T02:42:14.023Z,3.86
2016-04-07T02:43:14.026Z,3.88
2016-04-07T02:44:14.029Z,3.86
2016-04-07T02:45:14.031Z,3.85
2016-04-07T02:46:14.018Z,3.84
2016-04-07T02:47:14.021Z,3.84
2016-04-07T02:48:14.024Z,3.94
2016-04-07T02:49:14.010Z,3.91
2016-04-07T02:50:14.029Z,3.89
2016-04-07T02:51:14.016Z,3.91
2016-04-07T02:52:14.018Z,3.94
2016-04-07T02:53:14.021Z,4
2016-04-07T02:54:14.009Z,3.94
2016-04-07T02:55:14.012Z,3.92
2016-04-07T02:56:14.029Z,3.96
2016-04-07T02:57:14.017Z,3.94
2016-04-07T02:58:14.019Z,3.95
2016-04-07T02:59:14.022Z,4
2016-04-07T03:00:14.025Z,3.99
2016-04-07T03:01:14.012Z,3.91
2016-04-07T03:02:14.014Z,4.03
2016-04-07T03:03:14.017Z,4.06
2016-04-07T03:04:14.020Z,4.06
2016-04-07T03:05:14.007Z,4.2
2016-04-07T03:06:14.025Z,4.21
2016-04-07T03:07:13.997Z,4.2
2016-04-07T03:08:14.000Z,4.4
2016-04-07T03:09:14.002Z,4.4
2016-04-07T03:10:14.020Z,4.61
2016-04-07T03:11:14.008Z,4.58
2016-04-07T03:12:14.011Z,4.61
2016-04-07T03:13:14.012Z,4.64
2016-04-07T03:14:13.999Z,4.7
2016-04-07T03:15:14.002Z,4.63
2016-04-07T03:16:14.005Z,4.66
2016-04-07T03:17:14.007Z,4.67
2016-04-07T03:18:13.995Z,4.75
2016-04-07T03:19:14.012Z,4.75
2016-04-07T03:20:14.001Z,4.79
2016-04-07T03:21:14.003Z,4.71
2016-04-07T03:22:14.006Z,4.79
2016-04-07T03:23:14.008Z,4.86
2016-04-07T03:24:14.011Z,4.64
2016-04-07T03:25:13.998Z,4.76
2016-04-07T03:26:14.001Z,4.74
2016-04-07T03:27:14.019Z,4.74
2016-04-07T03:28:14.022Z,4.7
2016-04-07T03:29:13.993Z,4.7
2016-04-07T03:30:14.011Z,4.75
2016-04-07T03:31:13.998Z,4.71
2016-04-07T03:32:14.001Z,4.68
2016-04-07T03:33:14.020Z,4.66
2016-04-07T03:34:14.006Z,4.68
2016-04-07T03:35:14.009Z,4.71
2016-04-07T03:36:13.997Z,4.64
2016-04-07T03:37:14.000Z,4.66
2016-04-07T03:38:14.002Z,4.71
2016-04-07T03:39:13.989Z,4.7
2016-04-07T03:40:13.992Z,4.74
2016-04-07T03:41:13.994Z,4.71
2016-04-07T03:42:13.981Z,4.78
2016-04-07T03:43:13.999Z,4.74
2016-04-07T03:44:13.987Z,4.94
2016-04-07T03:45:13.989Z,5.05
2016-04-07T03:46:13.992Z,5.07
2016-04-07T03:47:14.011Z,5.28
2016-04-07T03:48:13.996Z,5.36
2016-04-07T03:49:13.984Z,5.34
2016-04-07T03:50:13.987Z,5.52
2016-04-07T03:51:13.990Z,5.62
2016-04-07T03:52:13.992Z,5.74
2016-04-07T03:53:13.996Z,5.79
2016-04-07T03:54:13.999Z,5.95
2016-04-07T03:55:14.032Z,5.81
2016-04-07T03:56:13.987Z,5.84
2016-04-07T03:57:13.990Z,5.94
2016-04-07T03:58:21.696Z,5.95
2016-04-07T03:59:13.995Z,6.02
2016-04-07T04:00:13.983Z,6.01
2016-04-07T04:01:13.986Z,6.01
2016-04-07T04:02:13.988Z,6.1
2016-04-07T04:03:13.975Z,6.15
2016-04-07T04:04:13.978Z,6.09
2016-04-07T04:05:13.981Z,6.26
2016-04-07T04:06:13.983Z,6.32
2016-04-07T04:07:13.970Z,6.31
2016-04-07T04:08:13.973Z,6.35
2016-04-07T04:09:14.039Z,6.41
2016-04-07T04:10:13.978Z,6.44
2016-04-07T04:11:13.981Z,6.49
2016-04-07T04:12:13.969Z,6.46
2016-04-07T04:13:13.971Z,6.39
2016-04-07T04:14:13.974Z,6.38
2016-04-07T04:15:13.977Z,6.38
2016-04-07T04:16:13.979Z,6.32
2016-04-07T04:17:13.982Z,6.29
2016-04-07T04:18:13.969Z,6.34
2016-04-07T04:19:13.972Z,6.34
2016-04-07T04:20:13.974Z,6.2
2016-04-07T04:21:13.977Z,6.19
2016-04-07T04:22:13.964Z,6.16
2016-04-07T04:23:13.982Z,5.99
2016-04-07T04:24:14.032Z,6.02
2016-04-07T04:25:13.972Z,6.02
2016-04-07T04:26:14.084Z,5.94
2016-04-07T04:27:13.962Z,5.87
2016-04-07T04:28:13.965Z,5.81
2016-04-07T04:29:13.983Z,5.76
2016-04-07T04:30:13.969Z,5.69
2016-04-07T04:31:13.972Z,5.67
2016-04-07T04:32:14.022Z,5.52
2016-04-07T04:33:13.978Z,5.55
2016-04-07T04:34:13.965Z,5.51
2016-04-07T04:35:13.967Z,5.44
2016-04-07T04:36:13.955Z,5.38
2016-04-07T04:37:13.972Z,5.34
2016-04-07T04:38:13.960Z,5.37
2016-04-07T04:39:13.963Z,5.34
2016-04-07T04:40:13.950Z,5.36
2016-04-07T04:41:13.969Z,5.29
2016-04-07T04:42:13.986Z,5.34
2016-04-07T04:43:13.957Z,5.38
2016-04-07T04:44:13.960Z,5.38
2016-04-07T04:45:13.963Z,5.33
2016-04-07T04:46:13.966Z,5.41
2016-04-07T04:47:13.984Z,5.4
2016-04-07T04:48:13.971Z,5.38
2016-04-07T04:49:13.958Z,5.49
2016-04-07T04:50:13.961Z,5.54
2016-04-07T04:51:13.963Z,5.55
2016-04-07T04:52:13.951Z,5.59
2016-04-07T04:53:13.954Z,5.58
2016-04-07T04:54:13.972Z,5.67
2016-04-07T04:55:13.959Z,5.7
2016-04-07T04:56:13.962Z,5.67
2016-04-07T04:57:13.949Z,5.76
2016-04-07T04:58:13.951Z,5.77
2016-04-07T04:59:13.954Z,5.76
2016-04-07T05:00:13.956Z,5.81
2016-04-07T05:01:13.959Z,5.76
2016-04-07T05:02:13.962Z,5.83
2016-04-07T05:03:13.949Z,5.81
2016-04-07T05:04:13.967Z,5.84
2016-04-07T05:05:13.954Z,5.83
2016-04-07T05:06:13.973Z,5.87
2016-04-07T05:07:13.960Z,5.83
2016-04-07T05:08:13.931Z,5.97
2016-04-07T05:09:14.184Z,5.9
2016-04-07T05:10:13.952Z,5.88
2016-04-07T05:11:13.955Z,5.81
2016-04-07T05:12:13.958Z,5.97
2016-04-07T05:13:13.960Z,5.88
2016-04-07T05:14:13.948Z,5.95
2016-04-07T05:15:13.950Z,5.98
2016-04-07T05:16:13.953Z,5.91
2016-04-07T05:17:13.955Z,5.91
2016-04-07T05:18:13.958Z,6.1
2016-04-07T05:19:13.946Z,6.05
2016-04-07T05:20:13.948Z,6.09
2016-04-07T05:21:13.935Z,6.16
2016-04-07T05:22:13.954Z,6.22
2016-04-07T05:23:13.940Z,6.29
2016-04-07T05:24:14.021Z,6.28
2016-04-07T05:25:13.929Z,6.35
2016-04-07T05:26:13.948Z,6.39
2016-04-07T05:27:13.951Z,6.56
2016-04-07T05:28:13.938Z,6.49
2016-04-07T05:29:13.941Z,6.57
2016-04-07T05:30:14.084Z,6.62
2016-04-07T05:31:13.931Z,6.67
2016-04-07T05:32:13.933Z,6.72
2016-04-07T05:33:13.936Z,6.83
2016-04-07T05:34:13.939Z,6.92
2016-04-07T05:35:13.942Z,6.96
2016-04-07T05:36:13.944Z,7.18
2016-04-07T05:37:13.931Z,7.23
2016-04-07T05:38:13.778Z,7.28
2016-04-07T05:39:14.093Z,7.36
2016-04-07T05:40:13.939Z,7.46
2016-04-07T05:41:13.926Z,7.48
2016-04-07T05:42:13.928Z,7.5
2016-04-07T05:43:13.931Z,7.64
2016-04-07T05:44:13.934Z,7.59
2016-04-07T05:45:13.937Z,7.69
2016-04-07T05:46:13.939Z,7.7
2016-04-07T05:47:13.927Z,7.84
2016-04-07T05:48:13.930Z,7.88
2016-04-07T05:49:13.933Z,7.9
2016-04-07T05:50:13.935Z,7.95
2016-04-07T05:51:13.922Z,8.01
2016-04-07T05:52:13.941Z,7.98
2016-04-07T05:53:13.927Z,8.02
2016-04-07T05:54:14.258Z,8.09
2016-04-07T05:55:13.933Z,8.11
2016-04-07T05:56:13.921Z,8.14
2016-04-07T05:57:13.923Z,8.18
2016-04-07T05:58:13.925Z,8.32
2016-04-07T05:59:13.771Z,8.32
2016-04-07T06:00:13.931Z,8.38
2016-04-07T06:01:13.917Z,8.45
2016-04-07T06:02:13.920Z,8.57
2016-04-07T06:03:13.923Z,8.63
2016-04-07T06:04:13.926Z,8.74
2016-04-07T06:05:13.928Z,8.78
2016-04-07T06:06:13.915Z,8.79
2016-04-07T06:07:13.933Z,8.9
2016-04-07T06:08:13.905Z,8.93
2016-04-07T06:09:13.897Z,8.97
2016-04-07T06:10:13.931Z,8.9
2016-04-07T06:11:13.919Z,8.97
2016-04-07T06:12:13.921Z,9.02
2016-04-07T06:13:13.955Z,9.15
2016-04-07T06:14:13.927Z,9.15
2016-04-07T06:15:13.913Z,9.27
2016-04-07T06:16:13.932Z,9.22
2016-04-07T06:17:13.903Z,9.29
2016-04-07T06:18:13.921Z,9.34
2016-04-07T06:19:13.908Z,9.36
2016-04-07T06:20:13.911Z,9.36
2016-04-07T06:21:13.914Z,9.39
2016-04-07T06:22:14.057Z,9.37
2016-04-07T06:23:13.904Z,9.36
2016-04-07T06:24:13.953Z,9.42
2016-04-07T06:25:13.909Z,9.51
2016-04-07T06:26:13.911Z,9.48
2016-04-07T06:27:13.914Z,9.51
2016-04-07T06:28:13.901Z,9.51
2016-04-07T06:29:13.904Z,9.52
2016-04-07T06:30:13.922Z,9.55
2016-04-07T06:31:13.909Z,9.56
2016-04-07T06:32:13.912Z,9.62
2016-04-07T06:33:13.898Z,9.62
2016-04-07T06:34:13.901Z,9.66
2016-04-07T06:35:13.904Z,9.74
2016-04-07T06:36:13.907Z,9.77
2016-04-07T06:37:13.894Z,9.85
2016-04-07T06:38:13.912Z,9.88
2016-04-07T06:39:13.805Z,9.97
2016-04-07T06:40:13.903Z,10.06
2016-04-07T06:41:13.905Z,10.06
2016-04-07T06:42:13.908Z,10.2
2016-04-07T06:43:13.895Z,10.23
2016-04-07T06:44:13.914Z,10.25
2016-04-07T06:45:13.900Z,10.28
2016-04-07T06:46:13.902Z,10.25
2016-04-07T06:47:13.921Z,10.34
2016-04-07T06:48:13.908Z,10.45
2016-04-07T06:49:13.958Z,10.43
2016-04-07T06:50:13.914Z,10.51
2016-04-07T06:51:13.901Z,10.51
2016-04-07T06:52:13.904Z,10.43
2016-04-07T06:53:13.890Z,10.34
2016-04-07T06:54:13.955Z,10.48
2016-04-07T06:55:13.895Z,10.31
2016-04-07T06:56:13.898Z,10.39
2016-04-07T06:57:13.901Z,10.39
2016-04-07T06:58:13.904Z,10.34
2016-04-07T06:59:13.891Z,10.27
2016-04-07T07:00:13.893Z,10.28
2016-04-07T07:01:13.896Z,10.33
2016-04-07T07:02:13.898Z,10.15
2016-04-07T07:03:13.901Z,10.13
2016-04-07T07:04:13.904Z,10.2
2016-04-07T07:05:13.907Z,10.24
2016-04-07T07:06:13.910Z,10.28
2016-04-07T07:07:13.740Z,10.31
2016-04-07T07:08:13.900Z,10.39
2016-04-07T07:09:13.903Z,10.39
2016-04-07T07:10:13.889Z,10.43
2016-04-07T07:11:13.908Z,10.39
2016-04-07T07:12:13.894Z,10.43
2016-04-07T07:13:13.897Z,10.51
2016-04-07T07:14:14.244Z,10.45
2016-04-07T07:15:13.903Z,10.53
2016-04-07T07:16:13.890Z,10.58
2016-04-07T07:17:13.658Z,10.59
2016-04-07T07:18:13.895Z,10.58
2016-04-07T07:19:13.897Z,10.67
2016-04-07T07:20:13.900Z,10.71
2016-04-07T07:21:13.903Z,10.79
2016-04-07T07:22:13.905Z,10.83
2016-04-07T07:23:13.893Z,10.87
2016-04-07T07:24:13.895Z,10.84
2016-04-07T07:25:13.898Z,10.84
2016-04-07T07:26:13.885Z,10.8
2016-04-07T07:27:13.904Z,10.77
2016-04-07T07:28:13.891Z,10.86
2016-04-07T07:29:13.893Z,10.9
2016-04-07T07:30:13.740Z,10.98
2016-04-07T07:31:13.898Z,11.01
2016-04-07T07:32:13.918Z,10.98
2016-04-07T07:33:13.910Z,11.08
2016-04-07T07:34:13.896Z,11.16
2016-04-07T07:35:13.899Z,11.18
2016-04-07T07:36:13.887Z,11.23
2016-04-07T07:37:13.890Z,11.22
2016-04-07T07:38:13.877Z,11.35
2016-04-07T07:39:13.910Z,11.31
2016-04-07T07:40:14.090Z,11.38
2016-04-07T07:41:13.889Z,11.35
2016-04-07T07:42:13.892Z,11.38
2016-04-07T07:43:13.911Z,11.38
2016-04-07T07:44:13.897Z,11.41
2016-04-07T07:45:13.900Z,11.53
2016-04-07T07:46:13.637Z,11.53
2016-04-07T07:47:13.890Z,11.56
2016-04-07T07:48:13.893Z,11.65
2016-04-07T07:49:13.895Z,11.68
2016-04-07T07:50:13.977Z,11.76
2016-04-07T07:51:13.900Z,11.77
2016-04-07T07:52:13.732Z,11.78
2016-04-07T07:53:13.890Z,11.8
2016-04-07T07:54:13.893Z,11.83
2016-04-07T07:55:13.896Z,11.88
2016-04-07T07:56:13.882Z,11.89
2016-04-07T07:57:13.901Z,11.89
2016-04-07T07:58:13.732Z,11.91
2016-04-07T07:59:13.891Z,11.97
2016-04-07T08:00:13.754Z,11.97
2016-04-07T08:01:13.896Z,11.99
2016-04-07T08:02:13.899Z,12.02
2016-04-07T08:03:13.902Z,12.11
2016-04-07T08:04:13.889Z,12.11
2016-04-07T08:05:13.892Z,12.17
2016-04-07T08:06:13.737Z,12.18
2016-04-07T08:07:13.897Z,12.2
2016-04-07T08:08:13.900Z,12.23
2016-04-07T08:09:13.887Z,12.23
2016-04-07T08:10:13.890Z,12.26
2016-04-07T08:11:13.892Z,12.23
2016-04-07T08:12:13.895Z,12.23
2016-04-07T08:13:13.913Z,12.35
2016-04-07T08:14:13.900Z,12.36
2016-04-07T08:15:13.903Z,12.33
2016-04-07T08:16:13.906Z,12.4
2016-04-07T08:17:13.893Z,12.48
2016-04-07T08:18:13.895Z,12.58
2016-04-07T08:19:13.898Z,12.69
2016-04-07T08:20:13.900Z,12.69
2016-04-07T08:21:13.903Z,12.83
2016-04-07T08:22:13.906Z,12.94
2016-04-07T08:23:13.908Z,13.11
2016-04-07T08:24:13.911Z,13.16
2016-04-07T08:25:13.898Z,13.31
2016-04-07T08:26:13.901Z,13.27
2016-04-07T08:27:13.904Z,13.39
2016-04-07T08:28:13.907Z,13.33
2016-04-07T08:29:13.910Z,13.47
2016-04-07T08:30:13.928Z,13.55
2016-04-07T08:31:13.915Z,13.68
2016-04-07T08:32:13.902Z,13.83
2016-04-07T08:33:13.920Z,14.07
2016-04-07T08:34:13.907Z,14.19
2016-04-07T08:35:13.909Z,14.34
2016-04-07T08:36:13.748Z,14.49
2016-04-07T08:37:13.901Z,14.49
2016-04-07T08:38:13.903Z,14.59
2016-04-07T08:39:13.922Z,14.62
2016-04-07T08:40:13.924Z,14.73
2016-04-07T08:41:13.927Z,14.82
2016-04-07T08:42:13.929Z,14.93
2016-04-07T08:43:13.916Z,15.08
2016-04-07T08:44:13.935Z,15.05
2016-04-07T08:45:13.922Z,15.11
2016-04-07T08:46:13.910Z,15.12
2016-04-07T08:47:13.912Z,15.11
2016-04-07T08:48:13.915Z,15.12
2016-04-07T08:49:13.917Z,15.07
2016-04-07T08:50:13.904Z,15.04
2016-04-07T08:51:13.906Z,15.04
2016-04-07T08:52:13.925Z,15.02
2016-04-07T08:53:13.928Z,14.92
2016-04-07T08:54:13.915Z,14.82
2016-04-07T08:55:17.401Z,14.67
2016-04-07T08:56:13.936Z,14.58
2016-04-07T08:57:13.907Z,14.55
2016-04-07T08:58:13.925Z,14.45
2016-04-07T08:59:13.959Z,14.41
2016-04-07T09:00:13.931Z,14.41
2016-04-07T09:01:13.918Z,14.37
2016-04-07T09:02:13.921Z,14.4
2016-04-07T09:03:13.908Z,14.33
2016-04-07T09:04:13.926Z,14.33
2016-04-07T09:05:13.913Z,14.41
2016-04-07T09:06:13.931Z,14.37
2016-04-07T09:07:14.621Z,14.3
2016-04-07T09:08:13.921Z,14.28
2016-04-07T09:09:13.939Z,14.38
2016-04-07T09:10:13.786Z,14.33
2016-04-07T09:11:13.929Z,14.28
2016-04-07T09:12:13.933Z,14.23
2016-04-07T09:13:13.935Z,14.18
2016-04-07T09:14:13.922Z,14.16
2016-04-07T09:15:13.940Z,14.08
2016-04-07T09:16:13.943Z,14.05
2016-04-07T09:17:13.946Z,14.11
2016-04-07T09:18:13.948Z,14.07
2016-04-07T09:19:13.951Z,14.07
2016-04-07T09:20:13.953Z,14.04
2016-04-07T09:21:13.957Z,14.08
2016-04-07T09:22:13.983Z,14.13
2016-04-07T09:23:14.022Z,14.13
2016-04-07T09:24:14.076Z,14.13
2016-04-07T09:25:14.084Z,14.15
2016-04-07T09:26:14.529Z,14.18
2016-04-07T09:27:14.147Z,14.08
2016-04-07T09:28:14.164Z,14.08
2016-04-07T09:29:14.179Z,14.05
2016-04-07T09:30:14.180Z,14.01
2016-04-07T09:31:14.211Z,14.05
2016-04-07T09:32:14.221Z,14.08
2016-04-07T09:33:14.213Z,14.08
2016-04-07T09:34:14.266Z,13.97
2016-04-07T09:35:14.227Z,14
2016-04-07T09:36:14.235Z,13.89
2016-04-07T09:37:14.224Z,13.86
2016-04-07T09:38:14.245Z,13.93
2016-04-07T09:39:14.234Z,13.79
2016-04-07T09:40:14.239Z,13.82
2016-04-07T09:41:14.243Z,13.83
2016-04-07T09:42:14.263Z,13.7
2016-04-07T09:43:14.250Z,13.78
2016-04-07T09:44:14.270Z,13.82
2016-04-07T09:45:14.257Z,13.73
2016-04-07T09:46:14.260Z,13.68
2016-04-07T09:47:14.263Z,13.71
2016-04-07T09:48:14.250Z,13.68
2016-04-07T09:49:14.253Z,13.68
2016-04-07T09:50:14.272Z,13.6
2016-04-07T09:51:14.258Z,13.61
2016-04-07T09:52:14.121Z,13.57
2016-04-07T09:53:14.123Z,13.55
2016-04-07T09:54:14.266Z,13.6
2016-04-07T09:55:14.332Z,13.58
2016-04-07T09:56:14.272Z,13.65
2016-04-07T09:57:14.259Z,13.62
2016-04-07T09:58:14.262Z,13.73
2016-04-07T09:59:14.265Z,13.73
2016-04-07T10:00:14.267Z,13.78
2016-04-07T10:01:14.270Z,13.94
2016-04-07T10:02:14.272Z,14.03
2016-04-07T10:03:14.275Z,14.19
2016-04-07T10:04:14.278Z,14.26
2016-04-07T10:05:14.281Z,14.4
2016-04-07T10:06:14.268Z,14.43
2016-04-07T10:07:14.271Z,14.62
2016-04-07T10:08:14.303Z,14.79
2016-04-07T10:09:14.431Z,15.1
2016-04-07T10:10:14.309Z,15.12
2016-04-07T10:11:14.281Z,15.29
2016-04-07T10:12:14.283Z,15.36
2016-04-07T10:13:14.286Z,15.44
2016-04-07T10:14:14.289Z,15.51
2016-04-07T10:15:14.291Z,15.59
2016-04-07T10:16:14.295Z,15.55
2016-04-07T10:17:14.297Z,15.69
2016-04-07T10:18:14.316Z,15.76
2016-04-07T10:19:14.287Z,15.76
2016-04-07T10:20:14.305Z,15.91
2016-04-07T10:21:14.292Z,15.87
2016-04-07T10:22:14.294Z,15.88
2016-04-07T10:23:14.298Z,15.85
2016-04-07T10:24:14.300Z,15.91
2016-04-07T10:25:14.319Z,16.02
2016-04-07T10:26:14.306Z,16.13
2016-04-07T10:27:14.340Z,16.24
2016-04-07T10:28:14.311Z,16.28
2016-04-07T10:29:14.298Z,16.31
2016-04-07T10:30:14.332Z,16.29
2016-04-07T10:31:14.303Z,16.29
2016-04-07T10:32:14.306Z,16.34
2016-04-07T10:33:14.324Z,16.46
2016-04-07T10:34:14.327Z,16.49
2016-04-07T10:35:14.346Z,16.57
2016-04-07T10:36:14.301Z,16.66
2016-04-07T10:37:14.304Z,16.69
2016-04-07T10:38:14.306Z,16.77
2016-04-07T10:39:14.325Z,16.72
2016-04-07T10:40:14.421Z,16.86
2016-04-07T10:41:14.330Z,16.92
2016-04-07T10:42:14.380Z,16.97
2016-04-07T10:43:14.351Z,17.09
2016-04-07T10:44:14.339Z,17.16
2016-04-07T10:45:14.342Z,17.13
2016-04-07T10:46:14.328Z,17.16
2016-04-07T10:47:14.331Z,17.27
2016-04-07T10:48:14.365Z,17.2
2016-04-07T10:49:14.367Z,17.31
2016-04-07T10:50:14.339Z,17.12
2016-04-07T10:51:14.342Z,17.05
2016-04-07T10:52:14.345Z,17.05
2016-04-07T10:53:14.332Z,17.19
2016-04-07T10:54:14.335Z,17.24
2016-04-07T10:55:28.852Z,17.3
2016-04-07T10:56:14.355Z,17.31
2016-04-07T10:57:14.358Z,17.46
2016-04-07T10:58:14.360Z,17.53
2016-04-07T10:59:14.363Z,17.49
2016-04-07T11:00:14.365Z,17.52
2016-04-07T11:01:14.368Z,17.5
2016-04-07T11:02:14.356Z,17.44
2016-04-07T11:03:14.359Z,17.35
2016-04-07T11:04:14.362Z,17.2
2016-04-07T11:05:14.364Z,17.17
2016-04-07T11:06:14.367Z,17.09
2016-04-07T11:07:14.369Z,16.92
2016-04-07T11:08:14.372Z,16.73
2016-04-07T11:09:14.374Z,16.8
2016-04-07T11:10:14.533Z,16.57
2016-04-07T11:11:14.380Z,16.51
2016-04-07T11:12:14.383Z,16.39
2016-04-07T11:13:14.386Z,16.29
2016-04-07T11:14:14.389Z,16.17
2016-04-07T11:15:14.391Z,16.06
2016-04-07T11:16:14.409Z,16.03
2016-04-07T11:17:14.396Z,15.92
2016-04-07T11:18:14.399Z,15.91
2016-04-07T11:19:14.417Z,15.87
2016-04-07T11:20:14.405Z,15.8
2016-04-07T11:21:14.408Z,15.75
2016-04-07T11:22:14.410Z,15.63
2016-04-07T11:23:14.397Z,15.67
2016-04-07T11:24:14.399Z,15.55
2016-04-07T11:25:14.418Z,15.54
2016-04-07T11:26:14.420Z,15.6
2016-04-07T11:27:14.423Z,15.63
2016-04-07T11:28:14.410Z,15.73
2016-04-07T11:29:14.413Z,15.72
2016-04-07T11:30:14.432Z,15.75
2016-04-07T11:31:14.434Z,15.81
2016-04-07T11:32:14.421Z,15.8
2016-04-07T11:33:14.424Z,15.76
2016-04-07T11:34:14.254Z,15.8
2016-04-07T11:35:14.429Z,15.83
2016-04-07T11:36:14.416Z,15.8
2016-04-07T11:37:14.418Z,15.83
2016-04-07T11:38:14.421Z,15.69
2016-04-07T11:39:14.424Z,15.73
2016-04-07T11:40:14.474Z,15.73
2016-04-07T11:41:14.429Z,15.59
2016-04-07T11:42:14.448Z,15.78
2016-04-07T11:43:14.482Z,15.65
2016-04-07T11:44:14.437Z,15.8
2016-04-07T11:45:14.456Z,15.8
2016-04-07T11:46:14.443Z,15.83
2016-04-07T11:47:14.445Z,15.84
2016-04-07T11:48:14.448Z,16
2016-04-07T11:49:14.451Z,15.99
2016-04-07T11:50:14.438Z,16
2016-04-07T11:51:14.472Z,16.06
2016-04-07T11:52:14.459Z,16.21
2016-04-07T11:53:14.446Z,16.34
2016-04-07T11:54:14.464Z,16.41
2016-04-07T11:55:14.499Z,16.49
2016-04-07T11:56:14.470Z,16.5
2016-04-07T11:57:14.316Z,16.61
2016-04-07T11:58:14.491Z,16.51
2016-04-07T11:59:14.478Z,16.62
2016-04-07T12:00:14.808Z,16.59
2016-04-07T12:01:14.468Z,16.68
2016-04-07T12:02:14.502Z,16.69
2016-04-07T12:03:14.473Z,16.76
2016-04-07T12:04:14.476Z,16.77
2016-04-07T12:05:14.479Z,16.89
2016-04-07T12:06:14.481Z,16.72
2016-04-07T12:07:14.468Z,16.76
2016-04-07T12:08:14.487Z,16.72
2016-04-07T12:09:14.489Z,16.58
2016-04-07T12:10:14.554Z,16.5
2016-04-07T12:11:14.494Z,16.51
2016-04-07T12:12:14.512Z,16.58
2016-04-07T12:13:14.500Z,16.55
2016-04-07T12:14:14.487Z,16.47
2016-04-07T12:15:14.506Z,16.43
2016-04-07T12:16:14.508Z,16.39
2016-04-07T12:17:14.495Z,16.29
2016-04-07T12:18:14.513Z,16.12
2016-04-07T12:19:14.500Z,15.88
2016-04-07T12:20:14.519Z,15.72
2016-04-07T12:21:14.521Z,15.54
2016-04-07T12:22:14.524Z,15.37
2016-04-07T12:23:14.510Z,15.39
2016-04-07T12:24:14.529Z,15.25
2016-04-07T12:25:14.391Z,15.11
2016-04-07T12:26:14.519Z,15.04
2016-04-07T12:27:14.522Z,14.94
2016-04-07T12:28:14.540Z,14.81
2016-04-07T12:29:14.527Z,14.73
2016-04-07T12:30:14.530Z,14.59
2016-04-07T12:31:14.532Z,14.51
2016-04-07T12:32:14.535Z,14.37
2016-04-07T12:33:14.537Z,14.37
2016-04-07T12:34:14.540Z,14.23
2016-04-07T12:35:14.543Z,14.16
2016-04-07T12:36:14.562Z,14.05
2016-04-07T12:37:14.533Z,14.01
2016-04-07T12:38:14.551Z,13.85
2016-04-07T12:39:14.538Z,13.87
2016-04-07T12:40:14.587Z,13.83
2016-04-07T12:41:14.543Z,13.79
2016-04-07T12:42:14.546Z,13.83
2016-04-07T12:43:14.565Z,13.8
2016-04-07T12:44:14.552Z,13.8
2016-04-07T12:45:14.554Z,13.93
2016-04-07T12:46:14.557Z,13.93
2016-04-07T12:47:14.559Z,13.98
2016-04-07T12:48:14.562Z,13.98
2016-04-07T12:49:14.564Z,14.07
2016-04-07T12:50:14.567Z,14.11
2016-04-07T12:51:14.570Z,14.19
2016-04-07T12:52:14.572Z,14.22
2016-04-07T12:53:14.576Z,14.25
2016-04-07T12:54:14.578Z,14.23
2016-04-07T12:55:14.581Z,14.22
2016-04-07T12:56:14.572Z,14.16
2016-04-07T12:57:14.574Z,14.16
2016-04-07T12:58:13.842Z,14.13
2016-04-07T12:59:14.579Z,14.12
2016-04-07T13:00:14.597Z,13.98
2016-04-07T13:01:14.585Z,13.98
2016-04-07T13:02:14.588Z,13.95
2016-04-07T13:03:14.590Z,14.04
2016-04-07T13:04:14.593Z,13.94
2016-04-07T13:05:14.596Z,13.95
2016-04-07T13:06:14.598Z,13.98
2016-04-07T13:07:14.601Z,13.98
2016-04-07T13:08:14.619Z,13.98